GB-0342 weather

Vanguard Heliport
London, England, United Kingdom

Public forecast

Using degrees Celsius for public forecast. Weather courtesy of forecast.io.

METAR (pilot weather report)

Closest report is London City Airport, 3.1 nm (5.8 km) ENE. Retrieved 2019/02/21 07:20 UTC (33 minutes ago):

EGLC 210720Z AUTO 24011KT 9999 BKN010 10/07 Q1024

TAF (pilot weather forecast)

Forecast is more than 12 hours old.

Closest forecast is London City Airport, 3.1 nm (5.8 km) ENE. Retrieved 2018/10/15 21:30 UTC (4 months ago):

TAF EGLC 152119Z 1521/1621 CNL